createdAt,value
2019-04-25T00:02:32.462Z,95075.59
2019-04-25T00:07:37.175Z,95071.97
2019-04-25T00:12:43.195Z,95082.16
2019-04-25T00:17:48.307Z,95075.02
2019-04-25T00:22:54.544Z,95074.14
2019-04-25T00:27:59.105Z,95067.23
2019-04-25T00:33:04.058Z,95083.71
2019-04-25T00:38:08.555Z,95083.55
2019-04-25T00:43:13.065Z,95091.21
2019-04-25T00:48:17.569Z,95098.91
2019-04-25T00:53:22.075Z,95097.27
2019-04-25T00:58:46.764Z,95102.22
2019-04-25T01:03:53.352Z,95107.91
2019-04-25T01:08:58.111Z,95097.18
2019-04-25T01:14:02.614Z,95091.93
2019-04-25T01:19:07.113Z,95096.31
2019-04-25T01:24:11.779Z,95087.83
2019-04-25T01:29:16.357Z,95092.67
2019-04-25T01:34:23.808Z,95084.80
2019-04-25T01:39:34.187Z,95083.01
2019-04-25T01:44:49.557Z,95068.66
2019-04-25T01:49:54.618Z,95078.38
2019-04-25T01:55:00.083Z,95068.38
2019-04-25T02:00:07.253Z,95077.30
2019-04-25T02:05:13.902Z,95079.06
2019-04-25T02:10:18.635Z,95077.23
2019-04-25T02:15:24.780Z,95069.73
2019-04-25T02:20:29.346Z,95069.80
2019-04-25T02:25:33.853Z,95073.02
2019-04-25T02:30:38.412Z,95073.21
2019-04-25T02:35:46.354Z,95071.65
2019-04-25T02:40:49.230Z,95078.69
2019-04-25T02:46:11.498Z,95072.58
2019-04-25T02:51:24.379Z,95077.10
2019-04-25T02:56:34.305Z,95075.65
2019-04-25T03:01:35.379Z,95075.76
2019-04-25T03:06:39.943Z,95064.89
2019-04-25T03:11:45.071Z,95073.62
2019-04-25T03:16:50.677Z,95064.99
2019-04-25T03:22:06.311Z,95071.69
2019-04-25T03:27:09.203Z,95065.89
2019-04-25T03:32:19.283Z,95069.14
2019-04-25T03:37:20.353Z,95078.45
2019-04-25T03:42:24.865Z,95075.48
2019-04-25T03:47:29.387Z,95073.91
2019-04-25T03:52:34.916Z,95071.77
2019-04-25T03:57:39.644Z,95077.42
2019-04-25T04:02:44.633Z,95074.28
2019-04-25T04:07:49.155Z,95086.90
2019-04-25T04:12:54.281Z,95080.16
2019-04-25T04:18:00.763Z,95085.03
2019-04-25T04:23:09.392Z,95085.23
2019-04-25T04:28:14.900Z,95084.98
2019-04-25T04:33:29.510Z,95091.77
2019-04-25T04:38:25.631Z,95094.40
2019-04-25T04:43:30.084Z,95092.06
2019-04-25T04:48:34.549Z,95101.16
2019-04-25T04:53:39.018Z,95105.45
2019-04-25T04:58:43.490Z,95101.70
